Time;durP1;ratioP1;P1;durP2;ratioP2;P2;SDS_P1;SDS_P2;PMS_P1;PMS_P2;Temp;Humidity;BMP_temperature;BMP_pressure;BME280_temperature;BME280_humidity;BME280_pressure;Samples;Min_cycle;Max_cycle;Signal;HPM_P1;HPM_P2
2022/08/27 00:02:10;;;;;;;3.25;0.38;;;17.90;99.90;;;;;;5026334;28;20108;-76
2022/08/27 00:04:39;;;;;;;2.42;0.40;;;17.90;99.90;;;;;;5025865;28;20056;-76
2022/08/27 00:07:06;;;;;;;3.00;0.38;;;17.90;99.90;;;;;;5044257;28;20037;-76
2022/08/27 00:09:33;;;;;;;1.92;0.30;;;18.00;99.90;;;;;;5045956;28;20029;-78
2022/08/27 00:11:59;;;;;;;3.22;0.40;;;17.90;99.90;;;;;;5022781;28;20021;-77
2022/08/27 00:14:27;;;;;;;2.03;0.50;;;17.90;99.90;;;;;;5041534;28;20370;-76
2022/08/27 00:16:54;;;;;;;3.03;0.40;;;17.90;99.90;;;;;;5026767;28;20028;-75
2022/08/27 00:19:20;;;;;;;3.00;0.35;;;17.90;99.90;;;;;;5028457;28;20033;-76
2022/08/27 00:21:46;;;;;;;2.58;0.40;;;17.80;99.90;;;;;;5026666;28;20029;-77
2022/08/27 00:24:12;;;;;;;2.53;0.40;;;17.80;99.90;;;;;;5044145;28;20108;-76
2022/08/27 00:26:38;;;;;;;3.28;0.35;;;17.80;99.90;;;;;;5045054;28;20460;-77
2022/08/27 00:29:04;;;;;;;5.15;0.40;;;17.80;99.90;;;;;;5025551;28;20036;-78
2022/08/27 00:31:29;;;;;;;2.97;0.40;;;17.80;99.90;;;;;;5045292;28;20468;-77
2022/08/27 00:33:56;;;;;;;4.75;0.40;;;17.70;99.90;;;;;;5013183;28;20029;-78
2022/08/27 00:36:23;;;;;;;4.07;0.40;;;17.70;99.90;;;;;;5025442;28;20536;-78
2022/08/27 00:38:49;;;;;;;3.10;0.47;;;17.70;99.90;;;;;;5026505;28;20433;-78
2022/08/27 00:41:16;;;;;;;4.22;0.70;;;17.70;99.90;;;;;;5044036;28;20401;-76
2022/08/27 00:43:52;;;;;;;2.95;0.40;;;17.60;99.90;;;;;;5042327;28;20039;-76
2022/08/27 00:46:38;;;;;;;2.00;0.50;;;17.70;99.90;;;;;;5025675;28;20396;-78
2022/08/27 00:49:10;;;;;;;3.42;0.40;;;17.60;99.90;;;;;;5045074;28;20052;-78
2022/08/27 00:51:37;;;;;;;3.20;0.43;;;17.70;99.90;;;;;;4996594;28;20037;-79
2022/08/27 00:54:04;;;;;;;4.25;0.60;;;17.60;99.90;;;;;;5043148;28;20032;-77
2022/08/27 00:56:43;;;;;;;2.70;0.40;;;17.60;99.90;;;;;;5024623;28;20029;-77
2022/08/27 00:59:13;;;;;;;2.10;0.40;;;17.60;99.90;;;;;;5043001;28;20025;-77
2022/08/27 01:02:17;;;;;;;3.25;0.47;;;17.60;99.90;;;;;;5010786;28;20037;-76
2022/08/27 01:04:27;;;;;;;2.33;0.43;;;17.50;99.90;;;;;;5043042;28;20176;-76
2022/08/27 01:06:54;;;;;;;3.83;0.50;;;17.50;99.90;;;;;;5043750;28;20028;-77
2022/08/27 01:09:20;;;;;;;3.83;0.50;;;17.50;99.90;;;;;;5043149;28;20033;-78
2022/08/27 01:11:47;;;;;;;2.55;0.50;;;17.60;99.90;;;;;;5042505;28;20017;-77
2022/08/27 01:14:14;;;;;;;1.80;0.40;;;17.50;99.90;;;;;;5023724;28;20297;-77
2022/08/27 01:16:44;;;;;;;2.25;0.40;;;17.50;99.90;;;;;;5026380;28;20496;-76
2022/08/27 01:19:27;;;;;;;2.38;0.40;;;17.50;99.90;;;;;;5026225;28;20123;-75
2022/08/27 01:21:58;;;;;;;2.50;0.50;;;17.50;99.90;;;;;;5041998;28;20025;-76
2022/08/27 01:24:23;;;;;;;4.15;0.65;;;17.50;99.90;;;;;;5025487;28;20045;-77
2022/08/27 01:26:49;;;;;;;2.53;0.70;;;17.50;99.90;;;;;;5043410;28;20080;-77
2022/08/27 01:29:16;;;;;;;4.38;0.93;;;17.40;99.90;;;;;;5024401;28;20025;-77
2022/08/27 01:31:42;;;;;;;2.35;0.50;;;17.40;99.90;;;;;;5008924;28;20087;-75
2022/08/27 01:34:07;;;;;;;2.25;0.40;;;17.40;99.90;;;;;;5025888;28;20036;-77
2022/08/27 01:36:33;;;;;;;4.22;0.60;;;17.50;99.90;;;;;;5045948;28;20052;-76
2022/08/27 01:38:59;;;;;;;3.20;0.40;;;17.40;99.90;;;;;;5024351;28;20036;-76
2022/08/27 01:41:25;;;;;;;1.80;0.50;;;17.40;99.90;;;;;;5058434;28;20118;-76
2022/08/27 01:43:51;;;;;;;1.90;0.40;;;17.40;99.90;;;;;;5024851;28;20041;-76
2022/08/27 01:46:22;;;;;;;1.77;0.43;;;17.40;99.90;;;;;;5044124;28;20026;-77
2022/08/27 01:48:48;;;;;;;2.00;0.35;;;17.40;99.90;;;;;;5042525;28;20109;-76
2022/08/27 01:51:13;;;;;;;3.70;0.70;;;17.30;99.90;;;;;;5027338;28;20128;-78
2022/08/27 01:53:39;;;;;;;1.42;0.40;;;17.30;99.90;;;;;;5043147;28;20056;-76
2022/08/27 01:56:05;;;;;;;3.13;0.50;;;17.30;99.90;;;;;;5041480;28;20041;-76
2022/08/27 01:58:32;;;;;;;3.40;0.60;;;17.30;99.90;;;;;;5044425;28;20029;-76
2022/08/27 02:01:02;;;;;;;2.72;0.60;;;17.20;99.90;;;;;;5026304;28;20036;-77
2022/08/27 02:03:28;;;;;;;2.65;0.47;;;17.20;99.90;;;;;;5012421;28;20483;-76
2022/08/27 02:05:53;;;;;;;3.13;0.60;;;17.20;99.90;;;;;;5045822;28;20033;-75
2022/08/27 02:08:20;;;;;;;1.95;0.50;;;17.20;99.90;;;;;;5048803;28;20032;-77
2022/08/27 02:10:47;;;;;;;2.15;0.40;;;17.20;99.90;;;;;;5027422;28;20034;-77
2022/08/27 02:13:13;;;;;;;3.67;0.90;;;17.20;99.90;;;;;;5029465;28;20128;-77
2022/08/27 02:15:40;;;;;;;1.52;0.40;;;17.20;99.90;;;;;;5016085;28;20462;-76
2022/08/27 02:18:07;;;;;;;4.60;0.75;;;17.20;99.90;;;;;;5015275;28;20033;-76
2022/08/27 02:20:33;;;;;;;3.17;0.60;;;17.20;99.90;;;;;;5015721;28;20396;-76
2022/08/27 02:22:59;;;;;;;1.85;0.50;;;17.10;99.90;;;;;;5048946;28;20031;-78
2022/08/27 02:25:27;;;;;;;3.42;0.52;;;17.20;99.90;;;;;;5047714;28;20124;-76
2022/08/27 02:27:58;;;;;;;5.72;0.65;;;17.10;99.90;;;;;;5030650;28;20104;-76
2022/08/27 02:30:25;;;;;;;4.22;0.70;;;17.20;99.90;;;;;;5026614;28;20039;-76
2022/08/27 02:32:51;;;;;;;2.60;0.40;;;17.20;99.90;;;;;;5027951;28;20461;-77
2022/08/27 02:35:19;;;;;;;2.50;0.40;;;17.10;99.90;;;;;;5028405;28;20025;-78
2022/08/27 02:37:45;;;;;;;2.45;0.40;;;17.10;99.90;;;;;;5045464;28;20084;-77
2022/08/27 02:40:17;;;;;;;3.17;0.50;;;17.10;99.90;;;;;;5045388;28;20559;-76
2022/08/27 02:42:43;;;;;;;2.08;0.43;;;17.10;99.90;;;;;;5044248;28;20330;-76
2022/08/27 02:45:09;;;;;;;4.30;0.50;;;17.00;99.90;;;;;;5047136;28;20440;-77
2022/08/27 02:47:35;;;;;;;4.05;0.57;;;17.10;99.90;;;;;;5047554;28;20021;-75
2022/08/27 02:50:02;;;;;;;2.60;0.40;;;17.00;99.90;;;;;;5045944;28;20132;-76
2022/08/27 02:52:28;;;;;;;4.78;0.60;;;17.10;99.90;;;;;;5011356;28;20030;-75
2022/08/27 02:54:55;;;;;;;4.03;0.65;;;17.00;99.90;;;;;;5045059;28;20033;-78
2022/08/27 02:57:21;;;;;;;4.15;0.68;;;16.90;99.90;;;;;;5029249;28;20049;-77
2022/08/27 02:59:47;;;;;;;6.78;0.70;;;16.90;99.90;;;;;;5045472;28;20079;-78
2022/08/27 03:02:13;;;;;;;3.33;0.50;;;16.90;99.90;;;;;;5026829;28;20028;-78
2022/08/27 03:04:39;;;;;;;3.10;0.60;;;16.90;99.90;;;;;;5044854;28;20030;-78
2022/08/27 03:07:05;;;;;;;4.68;0.60;;;16.90;99.90;;;;;;5046047;28;20021;-76
2022/08/27 03:09:32;;;;;;;2.75;0.50;;;16.80;99.90;;;;;;5027274;28;20393;-77
2022/08/27 03:11:57;;;;;;;3.08;0.38;;;16.80;99.90;;;;;;5044648;28;20028;-79
2022/08/27 03:14:23;;;;;;;4.25;0.60;;;16.80;99.90;;;;;;5029030;28;20033;-78
2022/08/27 03:16:49;;;;;;;4.18;0.88;;;16.80;99.90;;;;;;5044527;28;20116;-78
2022/08/27 03:19:14;;;;;;;4.60;0.70;;;16.80;99.90;;;;;;5044633;28;20112;-78
2022/08/27 03:21:40;;;;;;;2.22;0.50;;;16.70;99.90;;;;;;5028262;28;20042;-78
2022/08/27 03:24:06;;;;;;;2.80;0.60;;;16.70;99.90;;;;;;5062138;28;20037;-79
2022/08/27 03:26:32;;;;;;;3.47;0.55;;;16.60;99.90;;;;;;5045014;28;20025;-78
2022/08/27 03:28:58;;;;;;;2.90;0.60;;;16.70;99.90;;;;;;5027269;28;20119;-79
2022/08/27 03:31:25;;;;;;;3.05;0.60;;;16.60;99.90;;;;;;5029656;28;20071;-79
2022/08/27 03:34:05;;;;;;;2.63;0.50;;;16.60;99.90;;;;;;5025209;28;20025;-77
2022/08/27 03:36:31;;;;;;;1.80;0.40;;;16.60;99.90;;;;;;5024207;28;20071;-76
2022/08/27 03:38:57;;;;;;;3.72;0.40;;;16.60;99.90;;;;;;5026179;28;20041;-79
2022/08/27 03:41:24;;;;;;;2.85;0.43;;;16.60;99.90;;;;;;5027022;28;20490;-79
2022/08/27 03:43:51;;;;;;;3.00;0.50;;;16.50;99.90;;;;;;5007733;28;20491;-78
2022/08/27 03:46:19;;;;;;;2.25;0.40;;;16.50;99.90;;;;;;5046401;28;20021;-79
2022/08/27 03:48:45;;;;;;;2.65;0.68;;;16.50;99.90;;;;;;5027631;28;20025;-76
2022/08/27 03:51:14;;;;;;;2.50;0.50;;;16.50;99.90;;;;;;5027210;28;20042;-80
2022/08/27 03:53:42;;;;;;;2.38;0.60;;;16.50;99.90;;;;;;5027647;28;20044;-78
2022/08/27 03:56:08;;;;;;;4.40;0.60;;;16.50;99.90;;;;;;5044713;28;20166;-78
2022/08/27 03:58:36;;;;;;;1.70;0.50;;;16.50;99.90;;;;;;5008868;28;20037;-79
2022/08/27 04:01:03;;;;;;;2.80;0.50;;;16.50;99.90;;;;;;5044745;28;20382;-76
2022/08/27 04:03:29;;;;;;;2.08;0.55;;;16.50;99.90;;;;;;5044463;28;20130;-79
2022/08/27 04:05:56;;;;;;;2.50;0.50;;;16.40;99.90;;;;;;5029284;28;20057;-77
2022/08/27 04:08:23;;;;;;;3.22;0.55;;;16.40;99.90;;;;;;5026144;28;20107;-77
2022/08/27 04:10:49;;;;;;;1.98;0.40;;;16.40;99.90;;;;;;5025763;28;20318;-79
2022/08/27 04:13:16;;;;;;;1.58;0.45;;;16.30;99.90;;;;;;5041857;28;20087;-78
2022/08/27 04:15:47;;;;;;;2.63;0.50;;;16.40;99.90;;;;;;5027486;28;20029;-76
2022/08/27 04:18:16;;;;;;;3.40;0.50;;;16.30;99.90;;;;;;5023016;28;20078;-76
2022/08/27 04:20:43;;;;;;;1.10;0.40;;;16.30;99.90;;;;;;5013639;28;20094;-79
2022/08/27 04:23:09;;;;;;;3.05;0.57;;;16.40;99.90;;;;;;5024447;28;20115;-78
2022/08/27 04:25:39;;;;;;;2.45;0.40;;;16.30;99.90;;;;;;5046428;28;20147;-76
2022/08/27 04:28:05;;;;;;;3.70;0.60;;;16.30;99.90;;;;;;5043034;28;20436;-79
2022/08/27 04:30:31;;;;;;;2.47;0.50;;;16.40;99.90;;;;;;5025178;28;20033;-78
2022/08/27 04:32:57;;;;;;;2.28;0.40;;;16.40;99.90;;;;;;5025760;28;20029;-78
2022/08/27 04:35:23;;;;;;;2.13;0.40;;;16.40;99.90;;;;;;5045949;28;20029;-78
2022/08/27 04:37:49;;;;;;;1.33;0.40;;;16.40;99.90;;;;;;5024329;28;20032;-79
2022/08/27 04:40:15;;;;;;;3.53;0.55;;;16.30;99.90;;;;;;5041933;28;20052;-79
2022/08/27 04:42:41;;;;;;;5.28;0.90;;;16.20;99.90;;;;;;5020828;28;20025;-78
2022/08/27 04:45:07;;;;;;;3.15;0.60;;;16.20;99.90;;;;;;5026278;28;20110;-79
2022/08/27 04:47:33;;;;;;;3.08;0.70;;;16.20;99.90;;;;;;5012239;28;20117;-77
2022/08/27 04:49:59;;;;;;;4.60;0.90;;;16.10;99.90;;;;;;5025937;28;20481;-78
2022/08/27 04:52:25;;;;;;;3.15;0.70;;;16.00;99.90;;;;;;5025317;28;20040;-78
2022/08/27 04:54:51;;;;;;;4.70;0.70;;;16.00;99.90;;;;;;5011240;28;20035;-78
2022/08/27 04:57:17;;;;;;;3.15;0.70;;;15.90;99.90;;;;;;5045052;28;20032;-78
2022/08/27 04:59:42;;;;;;;5.43;1.10;;;15.80;99.90;;;;;;5059473;28;20086;-79
2022/08/27 05:02:09;;;;;;;3.58;0.70;;;15.80;99.90;;;;;;5025862;28;20521;-77
2022/08/27 05:04:37;;;;;;;3.47;0.77;;;15.80;99.90;;;;;;5025661;28;20041;-78
2022/08/27 05:07:03;;;;;;;3.75;0.75;;;15.80;99.90;;;;;;5044700;28;20021;-77
2022/08/27 05:09:29;;;;;;;3.60;0.60;;;15.80;99.90;;;;;;5040476;28;20378;-78
2022/08/27 05:11:55;;;;;;;4.60;1.35;;;15.80;99.90;;;;;;5058139;28;20029;-78
2022/08/27 05:14:22;;;;;;;3.15;0.80;;;15.80;99.90;;;;;;5028707;28;20504;-78
2022/08/27 05:16:48;;;;;;;2.45;0.60;;;15.80;99.90;;;;;;5042910;28;20481;-77
2022/08/27 05:19:14;;;;;;;4.32;0.70;;;15.80;99.90;;;;;;5042225;28;20048;-78
2022/08/27 05:21:47;;;;;;;1.70;0.65;;;15.80;99.90;;;;;;5024561;28;20041;-77
2022/08/27 05:24:13;;;;;;;3.70;0.60;;;15.80;99.90;;;;;;5008740;28;20036;-78
2022/08/27 05:26:39;;;;;;;3.95;0.70;;;15.80;99.90;;;;;;5024616;28;20074;-76
2022/08/27 05:29:07;;;;;;;2.72;0.82;;;15.80;99.90;;;;;;5024772;28;20187;-78
2022/08/27 05:31:33;;;;;;;6.07;0.90;;;15.70;99.90;;;;;;5043769;28;20106;-77
2022/08/27 05:34:00;;;;;;;3.03;0.80;;;15.70;99.90;;;;;;5023468;28;20492;-78
2022/08/27 05:36:31;;;;;;;2.67;0.63;;;15.70;99.90;;;;;;5023383;28;20435;-78
2022/08/27 05:39:00;;;;;;;5.57;0.75;;;15.70;99.90;;;;;;5040847;28;20028;-78
2022/08/27 05:41:29;;;;;;;2.90;0.90;;;15.70;99.90;;;;;;5045197;28;20041;-77
2022/08/27 05:43:57;;;;;;;5.32;0.90;;;15.70;99.90;;;;;;5044112;28;20083;-77
2022/08/27 05:46:24;;;;;;;3.05;0.90;;;15.70;99.90;;;;;;5044679;28;20028;-77
2022/08/27 05:48:51;;;;;;;3.45;0.75;;;15.70;99.90;;;;;;5044593;28;20022;-77
2022/08/27 05:51:23;;;;;;;3.63;0.70;;;15.80;99.90;;;;;;5046219;28;20029;-77
2022/08/27 05:53:48;;;;;;;2.13;0.50;;;15.80;99.90;;;;;;5027371;28;20082;-77
2022/08/27 05:56:21;;;;;;;3.20;0.50;;;15.80;99.90;;;;;;5045002;28;20025;-76
2022/08/27 06:01:39;;;;;;;4.82;0.65;;;15.80;99.90;;;;;;5043699;28;20095;-76
2022/08/27 06:04:05;;;;;;;3.35;0.75;;;15.80;99.90;;;;;;5025531;28;20032;-77
2022/08/27 06:06:37;;;;;;;3.70;1.00;;;15.90;99.90;;;;;;5061979;28;20477;-77
2022/08/27 06:09:03;;;;;;;5.70;0.65;;;15.90;99.90;;;;;;5045032;28;20525;-78
2022/08/27 06:11:29;;;;;;;1.73;0.50;;;16.00;99.90;;;;;;5045097;28;20037;-78
2022/08/27 06:13:56;;;;;;;2.47;0.50;;;16.20;99.90;;;;;;5046390;28;20493;-77
2022/08/27 06:16:21;;;;;;;3.30;0.80;;;16.20;99.90;;;;;;5047293;28;20021;-77
2022/08/27 06:18:48;;;;;;;5.22;0.90;;;16.20;99.90;;;;;;5046489;28;20033;-76
2022/08/27 06:21:16;;;;;;;3.92;1.23;;;16.30;99.90;;;;;;5029488;28;20032;-78
2022/08/27 06:23:42;;;;;;;2.85;0.70;;;16.40;99.90;;;;;;5028176;28;20021;-79
2022/08/27 06:26:13;;;;;;;5.15;0.80;;;16.50;99.90;;;;;;5029344;28;20500;-78
2022/08/27 06:28:42;;;;;;;1.95;0.68;;;16.70;99.90;;;;;;5040354;28;20029;-78
2022/08/27 06:31:20;;;;;;;3.00;0.70;;;16.80;99.90;;;;;;5045273;28;20091;-77
2022/08/27 06:33:46;;;;;;;1.33;0.40;;;17.00;99.90;;;;;;5025983;28;20025;-77
2022/08/27 06:36:15;;;;;;;1.75;0.40;;;17.20;99.90;;;;;;5046658;28;20401;-77
2022/08/27 06:38:44;;;;;;;3.25;0.55;;;17.40;99.90;;;;;;5025616;28;20029;-79
2022/08/27 06:41:12;;;;;;;3.00;0.70;;;17.50;99.90;;;;;;5038814;28;20139;-78
2022/08/27 06:43:40;;;;;;;1.75;0.50;;;17.50;99.90;;;;;;5028169;28;20029;-77
2022/08/27 06:46:12;;;;;;;2.95;0.50;;;17.80;99.90;;;;;;5044000;28;20158;-78
2022/08/27 06:48:38;;;;;;;2.85;0.70;;;17.80;99.90;;;;;;5044519;28;20037;-77
2022/08/27 06:51:18;;;;;;;2.42;0.55;;;17.90;99.90;;;;;;5045849;28;20431;-78
2022/08/27 06:53:46;;;;;;;3.53;0.60;;;17.80;99.90;;;;;;5043088;28;20075;-76
2022/08/27 06:56:16;;;;;;;2.97;0.57;;;18.00;99.90;;;;;;5028877;28;20887;-76
2022/08/27 06:58:42;;;;;;;1.67;0.40;;;17.90;99.90;;;;;;5045289;28;20087;-78
2022/08/27 07:01:18;;;;;;;1.63;0.40;;;18.10;99.90;;;;;;5044211;28;20098;-77
2022/08/27 07:03:44;;;;;;;2.80;0.50;;;18.40;99.90;;;;;;5044293;28;20037;-77
2022/08/27 07:06:11;;;;;;;2.50;0.30;;;18.50;99.90;;;;;;5043595;28;20087;-79
2022/08/27 07:08:38;;;;;;;1.83;0.40;;;18.70;99.90;;;;;;5013734;28;20501;-78
2022/08/27 07:11:07;;;;;;;2.88;0.50;;;18.80;99.90;;;;;;5044742;28;20116;-77
2022/08/27 07:13:33;;;;;;;5.38;0.70;;;18.90;99.90;;;;;;5008900;28;20094;-79
2022/08/27 07:16:04;;;;;;;1.83;0.30;;;18.90;99.90;;;;;;5044071;28;20452;-78
2022/08/27 07:18:29;;;;;;;1.40;0.38;;;18.80;99.90;;;;;;5027108;28;20029;-78
2022/08/27 07:20:55;;;;;;;2.65;0.47;;;19.10;99.90;;;;;;5025229;28;20511;-77
2022/08/27 07:23:21;;;;;;;2.28;0.30;;;19.00;99.90;;;;;;5027004;28;20108;-79
2022/08/27 07:25:46;;;;;;;2.65;0.40;;;19.10;99.90;;;;;;5023351;28;20098;-79
2022/08/27 07:28:12;;;;;;;3.10;0.40;;;19.10;99.90;;;;;;5041987;28;20076;-77
2022/08/27 07:30:38;;;;;;;2.55;0.30;;;19.20;99.90;;;;;;5042259;28;20108;-77
2022/08/27 07:33:04;;;;;;;3.33;0.30;;;19.20;99.90;;;;;;5045452;28;20112;-75
2022/08/27 07:35:30;;;;;;;2.95;0.30;;;19.60;99.90;;;;;;5045347;28;20032;-75
2022/08/27 07:37:56;;;;;;;4.38;0.57;;;20.00;99.90;;;;;;5012680;28;20049;-75
2022/08/27 07:40:23;;;;;;;1.88;0.20;;;19.50;99.90;;;;;;5044212;28;20071;-77
2022/08/27 07:45:33;;;;;;;2.63;0.22;;;20.00;99.90;;;;;;5027602;28;20044;-78
2022/08/27 07:47:59;;;;;;;1.40;0.40;;;19.70;99.90;;;;;;5040054;28;20021;-75
2022/08/27 07:50:25;;;;;;;1.05;0.20;;;19.80;99.90;;;;;;5028560;28;20027;-77
2022/08/27 07:52:51;;;;;;;0.80;0.13;;;19.80;99.90;;;;;;5023699;28;20033;-77
2022/08/27 07:55:17;;;;;;;1.45;0.20;;;20.10;99.90;;;;;;5027359;28;20033;-76
2022/08/27 07:57:44;;;;;;;2.22;0.20;;;20.50;99.90;;;;;;5012589;28;20460;-74
2022/08/27 08:00:11;;;;;;;2.20;0.20;;;20.10;99.90;;;;;;5056426;28;20024;-75
2022/08/27 08:02:40;;;;;;;;;;;19.80;99.90;;;;;;5044629;28;20047;-76
2022/08/27 08:05:07;;;;;;;1.92;0.22;;;19.90;99.90;;;;;;5042841;28;19917;-77
2022/08/27 08:07:33;;;;;;;1.35;0.20;;;19.80;99.90;;;;;;5024979;28;20037;-77
2022/08/27 08:09:59;;;;;;;1.63;0.20;;;20.50;99.90;;;;;;5023574;28;20026;-75
2022/08/27 08:12:25;;;;;;;2.22;0.30;;;20.70;99.90;;;;;;5043512;28;20083;-77
2022/08/27 08:14:56;;;;;;;1.27;0.30;;;20.80;99.90;;;;;;5025750;28;20036;-76
2022/08/27 08:17:24;;;;;;;1.75;0.20;;;20.70;99.90;;;;;;5039574;28;20128;-76
2022/08/27 08:19:50;;;;;;;2.20;0.30;;;21.10;99.90;;;;;;5042014;28;20124;-77
2022/08/27 08:22:15;;;;;;;0.80;0.20;;;21.00;99.90;;;;;;5023693;28;20033;-77
2022/08/27 08:24:41;;;;;;;2.40;0.20;;;20.60;99.90;;;;;;5042809;28;20037;-76
2022/08/27 08:27:07;;;;;;;1.33;0.20;;;20.70;99.90;;;;;;5022603;28;20119;-77
2022/08/27 08:29:32;;;;;;;2.67;0.20;;;20.40;99.90;;;;;;5025053;28;20270;-77
2022/08/27 08:31:58;;;;;;;3.13;0.20;;;20.50;99.90;;;;;;5027213;28;20424;-76
2022/08/27 08:34:23;;;;;;;3.45;0.20;;;20.60;99.90;;;;;;5025272;28;20605;-74
2022/08/27 08:36:49;;;;;;;1.83;0.20;;;20.50;99.90;;;;;;5026225;28;20017;-77
2022/08/27 08:39:18;;;;;;;2.05;0.38;;;20.20;99.90;;;;;;5042083;28;20029;-75
2022/08/27 08:41:57;;;;;;;1.45;0.20;;;20.10;99.90;;;;;;5041531;28;20045;-77
2022/08/27 08:44:48;;;;;;;2.10;0.20;;;20.60;99.90;;;;;;5027620;28;20174;-76
2022/08/27 08:47:24;;;;;;;2.50;0.20;;;20.70;99.90;;;;;;5024845;28;20806;-75
2022/08/27 08:50:04;;;;;;;3.03;0.20;;;21.30;99.90;;;;;;5023847;28;20086;-77
2022/08/27 08:53:27;;;;;;;1.30;0.20;;;20.90;99.90;;;;;;5023895;28;20496;-76
2022/08/27 08:56:07;;;;;;;2.25;0.20;;;20.60;99.90;;;;;;4965656;28;20427;-76
2022/08/27 08:58:48;;;;;;;1.23;0.20;;;20.30;99.90;;;;;;4966116;28;20031;-77
2022/08/27 09:01:17;;;;;;;2.08;0.30;;;20.60;99.90;;;;;;4966434;28;20110;-74
2022/08/27 09:04:07;;;;;;;2.08;0.22;;;21.20;99.90;;;;;;4966106;28;20062;-79
2022/08/27 09:06:48;;;;;;;1.20;0.20;;;21.50;99.90;;;;;;4949579;28;20070;-77
2022/08/27 09:09:20;;;;;;;2.78;0.40;;;21.00;99.90;;;;;;4981215;28;20038;-78
2022/08/27 09:12:06;;;;;;;2.33;0.20;;;21.20;99.90;;;;;;4967571;28;20043;-76
2022/08/27 09:14:37;;;;;;;2.15;0.20;;;21.30;99.90;;;;;;4930251;28;20499;-77
2022/08/27 09:17:04;;;;;;;1.95;0.20;;;21.60;99.90;;;;;;4966341;28;20463;-76
2022/08/27 09:19:30;;;;;;;1.40;0.20;;;21.30;99.90;;;;;;4964819;28;20073;-76
2022/08/27 09:22:02;;;;;;;2.33;0.20;;;21.90;99.90;;;;;;4948797;28;20045;-75
2022/08/27 09:24:41;;;;;;;1.38;0.10;;;22.60;99.90;;;;;;4951869;28;20046;-76
2022/08/27 09:27:11;;;;;;;2.35;0.20;;;22.40;99.90;;;;;;4948500;28;20114;-76
2022/08/27 09:29:50;;;;;;;0.88;0.10;;;22.30;99.90;;;;;;5007197;28;20033;-78
2022/08/27 09:32:30;;;;;;;1.95;0.20;;;22.90;99.90;;;;;;5011594;28;20033;-74
2022/08/27 09:34:59;;;;;;;2.78;0.20;;;23.00;99.90;;;;;;5042280;28;20033;-79
2022/08/27 09:37:28;;;;;;;1.25;0.20;;;22.70;99.90;;;;;;5042944;28;20039;-79
2022/08/27 09:40:16;;;;;;;0.65;0.10;;;22.70;99.90;;;;;;5027008;28;20044;-76
2022/08/27 09:42:47;;;;;;;1.65;0.15;;;22.60;99.90;;;;;;5026248;28;20033;-78
2022/08/27 09:45:22;;;;;;;1.38;0.20;;;22.40;99.90;;;;;;5023808;28;20115;-79
2022/08/27 09:47:53;;;;;;;0.93;0.10;;;22.40;99.90;;;;;;5024090;28;20031;-80
2022/08/27 09:50:22;;;;;;;1.73;0.13;;;22.60;99.90;;;;;;5042363;28;20033;-78
2022/08/27 09:52:54;;;;;;;0.93;0.10;;;22.20;99.90;;;;;;5043519;28;20477;-76
2022/08/27 09:55:48;;;;;;;0.70;0.10;;;22.60;99.90;;;;;;5043405;28;20441;-76
2022/08/27 09:58:27;;;;;;;3.22;0.20;;;23.00;99.90;;;;;;5024104;28;20040;-77
2022/08/27 10:01:04;;;;;;;1.45;0.10;;;22.40;99.90;;;;;;5043860;28;20532;-75
2022/08/27 10:03:29;;;;;;;0.90;0.10;;;23.00;99.90;;;;;;5024090;28;20037;-74
2022/08/27 10:05:56;;;;;;;0.65;0.15;;;23.60;99.90;;;;;;5027532;28;20106;-76
2022/08/27 10:08:42;;;;;;;2.45;0.20;;;24.40;99.90;;;;;;5023315;28;20029;-75
2022/08/27 10:11:19;;;;;;;2.47;0.20;;;24.20;99.90;;;;;;5042298;28;20029;-78
2022/08/27 10:14:00;;;;;;;2.15;0.20;;;23.10;99.90;;;;;;5008953;28;20060;-76
2022/08/27 10:17:21;;;;;;;0.85;0.20;;;23.90;99.90;;;;;;5023963;28;20028;-75
2022/08/27 10:20:02;;;;;;;0.73;0.10;;;24.70;99.90;;;;;;5035840;28;20803;-77
2022/08/27 10:23:09;;;;;;;1.35;0.20;;;24.00;99.90;;;;;;5018134;28;20040;-75
2022/08/27 10:25:40;;;;;;;2.00;0.25;;;22.40;99.90;;;;;;5035118;28;20061;-79
2022/08/27 10:28:43;;;;;;;2.45;0.20;;;22.20;99.90;;;;;;5035297;28;20028;-77
2022/08/27 10:31:24;;;;;;;3.47;0.30;;;21.90;99.90;;;;;;5004751;28;20116;-78
2022/08/27 10:34:07;;;;;;;4.65;0.15;;;21.70;99.90;;;;;;5042629;28;20170;-76
2022/08/27 10:36:58;;;;;;;1.42;0.20;;;22.10;99.90;;;;;;5045630;28;20038;-74
2022/08/27 10:39:41;;;;;;;1.38;0.20;;;22.60;99.90;;;;;;5026831;28;20028;-77
2022/08/27 10:42:25;;;;;;;2.25;0.20;;;22.80;99.90;;;;;;5011636;28;20045;-76
2022/08/27 10:45:03;;;;;;;1.88;0.20;;;22.10;99.90;;;;;;5020777;28;20045;-74
2022/08/27 10:48:18;;;;;;;1.60;0.20;;;21.80;99.90;;;;;;5026592;28;20095;-76
2022/08/27 10:50:47;;;;;;;1.50;0.10;;;22.20;99.90;;;;;;4997761;28;20260;-74
2022/08/27 10:53:45;;;;;;;1.15;0.20;;;23.20;99.90;;;;;;5002112;28;20112;-74
2022/08/27 10:56:39;;;;;;;2.88;0.20;;;23.50;99.90;;;;;;5020284;28;20436;-75
2022/08/27 10:59:18;;;;;;;1.50;0.10;;;24.20;99.90;;;;;;5003598;28;20036;-78
2022/08/27 11:01:57;;;;;;;1.38;0.10;;;25.10;99.90;;;;;;5005995;28;20033;-77
2022/08/27 11:04:31;;;;;;;1.03;0.10;;;25.40;99.90;;;;;;5021812;28;20528;-76
2022/08/27 11:07:28;;;;;;;1.05;0.20;;;25.50;99.90;;;;;;5044297;28;20116;-79
2022/08/27 11:09:58;;;;;;;1.25;0.10;;;24.90;99.90;;;;;;5020844;28;20029;-79
2022/08/27 11:12:30;;;;;;;1.35;0.20;;;24.00;99.90;;;;;;5037170;28;20075;-78
2022/08/27 11:15:09;;;;;;;0.60;0.10;;;23.20;99.90;;;;;;5027282;28;20036;-76
2022/08/27 11:17:57;;;;;;;1.20;0.13;;;23.70;99.90;;;;;;5027325;28;20145;-79
2022/08/27 11:20:37;;;;;;;1.50;0.30;;;24.10;99.90;;;;;;5020659;28;20033;-75
2022/08/27 11:23:13;;;;;;;2.00;0.20;;;23.30;99.90;;;;;;5025948;28;20029;-77
2022/08/27 11:25:49;;;;;;;1.63;0.20;;;22.70;99.90;;;;;;5024618;28;20037;-75
2022/08/27 11:28:21;;;;;;;1.40;0.10;;;22.50;99.90;;;;;;5005550;28;20040;-76
2022/08/27 11:30:55;;;;;;;2.42;0.20;;;22.40;99.90;;;;;;5022513;28;20120;-75
2022/08/27 11:33:28;;;;;;;2.60;0.20;;;23.30;99.90;;;;;;5027008;28;20033;-79
2022/08/27 11:36:08;;;;;;;0.80;0.20;;;24.30;99.90;;;;;;5009585;28;20477;-78
2022/08/27 11:39:14;;;;;;;1.10;0.20;;;24.80;99.90;;;;;;5004954;28;20596;-78
2022/08/27 11:41:43;;;;;;;0.82;0.20;;;23.60;99.90;;;;;;5044597;28;20539;-78
2022/08/27 11:44:11;;;;;;;1.00;0.15;;;23.50;99.90;;;;;;5043828;28;20360;-75
2022/08/27 11:47:13;;;;;;;4.00;0.22;;;23.30;99.90;;;;;;5043073;28;20041;-76
2022/08/27 11:49:50;;;;;;;1.27;0.10;;;22.80;99.90;;;;;;5018417;28;20041;-77
2022/08/27 11:52:36;;;;;;;3.17;0.20;;;23.00;99.90;;;;;;5022064;28;20074;-75
2022/08/27 11:55:20;;;;;;;1.50;0.20;;;24.10;99.90;;;;;;5026148;28;20435;-76
2022/08/27 11:58:00;;;;;;;2.00;0.20;;;24.40;99.90;;;;;;5025953;28;20071;-76
2022/08/27 12:00:26;;;;;;;1.65;0.10;;;23.70;99.90;;;;;;5026692;28;20032;-77
2022/08/27 12:03:01;;;;;;;1.27;0.17;;;24.10;99.90;;;;;;5041253;28;20029;-76
2022/08/27 12:05:44;;;;;;;1.50;0.20;;;24.40;99.90;;;;;;5025726;28;20041;-77
2022/08/27 12:08:22;;;;;;;1.13;0.20;;;23.80;99.90;;;;;;5019808;28;20100;-77
2022/08/27 12:11:03;;;;;;;1.27;0.20;;;23.80;99.90;;;;;;5044068;28;20477;-76
2022/08/27 12:13:48;;;;;;;2.83;0.20;;;23.00;99.90;;;;;;5006701;28;22133;-80
2022/08/27 12:16:47;;;;;;;1.40;0.20;;;23.00;99.90;;;;;;5007672;28;20043;-78
2022/08/27 12:19:55;;;;;;;1.80;0.20;;;23.30;99.90;;;;;;5023273;28;20094;-76
2022/08/27 12:26:14;;;;;;;1.20;0.20;;;24.00;99.90;;;;;;4943224;28;21758;-77
2022/08/27 12:28:40;;;;;;;1.92;0.20;;;24.00;99.90;;;;;;4960949;28;20546;-79
2022/08/27 12:31:06;;;;;;;0.95;0.10;;;24.20;99.90;;;;;;4942657;28;20126;-81
2022/08/27 12:33:44;;;;;;;1.13;0.20;;;23.90;99.90;;;;;;4943996;28;20102;-79
2022/08/27 12:36:15;;;;;;;1.27;0.20;;;24.10;99.90;;;;;;4937687;28;20098;-77
2022/08/27 12:38:51;;;;;;;1.45;0.20;;;24.00;99.90;;;;;;4928922;28;20035;-81
2022/08/27 12:41:37;;;;;;;2.58;0.10;;;24.30;99.90;;;;;;4943838;28;20389;-81
2022/08/27 12:44:06;;;;;;;1.48;0.20;;;24.70;99.90;;;;;;4944337;28;20039;-77
2022/08/27 12:46:35;;;;;;;0.77;0.10;;;24.70;99.90;;;;;;4928669;28;20077;-82
2022/08/27 12:49:03;;;;;;;0.77;0.10;;;24.40;99.90;;;;;;4961027;28;20191;-79
2022/08/27 12:51:32;;;;;;;0.43;0.10;;;24.20;99.90;;;;;;4931236;28;20373;-80
2022/08/27 12:54:24;;;;;;;1.10;0.10;;;24.00;99.90;;;;;;4959756;28;20031;-79
2022/08/27 12:57:29;;;;;;;1.60;0.17;;;24.00;99.90;;;;;;5003414;28;20407;-78
2022/08/27 13:00:13;;;;;;;2.65;0.20;;;23.80;99.90;;;;;;5040734;28;20463;-77
2022/08/27 13:02:57;;;;;;;1.00;0.10;;;23.70;99.90;;;;;;5037206;28;20028;-77
2022/08/27 13:05:23;;;;;;;0.80;0.20;;;24.30;99.90;;;;;;5008701;28;20114;-83
2022/08/27 13:07:51;;;;;;;1.35;0.20;;;23.70;99.90;;;;;;5024653;28;20506;-77
2022/08/27 13:10:31;;;;;;;2.75;0.30;;;23.10;99.90;;;;;;5020456;28;20116;-78
2022/08/27 13:13:05;;;;;;;2.10;0.20;;;22.90;99.90;;;;;;5023800;28;20113;-77
2022/08/27 13:15:32;;;;;;;2.25;0.20;;;22.50;99.90;;;;;;5017212;28;20044;-78
2022/08/27 13:17:59;;;;;;;1.65;0.20;;;22.40;99.90;;;;;;5042233;28;20079;-79
2022/08/27 13:20:25;;;;;;;1.58;0.20;;;22.60;99.90;;;;;;5016630;28;20079;-76